sensor_id;sensor_type;location;lat;lon;timestamp;P1;durP1;ratioP1;P2;durP2;ratioP2
56629;SDS011;42502;40.732;-74.254;2023-07-13T00:00:16;2.67;;;2.47;;
56629;SDS011;42502;40.732;-74.254;2023-07-13T00:02:17;2.75;;;2.60;;
56629;SDS011;42502;40.732;-74.254;2023-07-13T00:04:18;2.67;;;2.47;;
56629;SDS011;42502;40.732;-74.254;2023-07-13T00:06:20;2.95;;;2.72;;
56629;SDS011;42502;40.732;-74.254;2023-07-13T00:08:21;2.38;;;2.28;;
56629;SDS011;42502;40.732;-74.254;2023-07-13T00:10:23;2.50;;;2.40;;
56629;SDS011;42502;40.732;-74.254;2023-07-13T00:12:28;2.60;;;2.40;;
56629;SDS011;42502;40.732;-74.254;2023-07-13T00:14:33;2.85;;;2.65;;
56629;SDS011;42502;40.732;-74.254;2023-07-13T00:16:35;2.67;;;2.47;;
56629;SDS011;42502;40.732;-74.254;2023-07-13T00:18:46;3.40;;;2.50;;
56629;SDS011;42502;40.732;-74.254;2023-07-13T00:20:47;2.90;;;2.70;;
56629;SDS011;42502;40.732;-74.254;2023-07-13T00:22:49;3.33;;;2.78;;
56629;SDS011;42502;40.732;-74.254;2023-07-13T00:24:49;2.95;;;2.67;;
56629;SDS011;42502;40.732;-74.254;2023-07-13T00:26:52;6.90;;;3.55;;
56629;SDS011;42502;40.732;-74.254;2023-07-13T00:28:55;12.25;;;3.75;;
56629;SDS011;42502;40.732;-74.254;2023-07-13T00:30:56;10.07;;;3.80;;
56629;SDS011;42502;40.732;-74.254;2023-07-13T00:32:57;7.95;;;2.90;;
56629;SDS011;42502;40.732;-74.254;2023-07-13T00:35:01;3.42;;;3.13;;
56629;SDS011;42502;40.732;-74.254;2023-07-13T00:37:05;3.40;;;3.10;;
56629;SDS011;42502;40.732;-74.254;2023-07-13T00:39:06;8.70;;;3.35;;
56629;SDS011;42502;40.732;-74.254;2023-07-13T00:41:08;5.35;;;2.92;;
56629;SDS011;42502;40.732;-74.254;2023-07-13T00:43:13;5.70;;;3.05;;
56629;SDS011;42502;40.732;-74.254;2023-07-13T00:47:20;2.83;;;2.63;;
56629;SDS011;42502;40.732;-74.254;2023-07-13T00:49:21;5.22;;;2.65;;
56629;SDS011;42502;40.732;-74.254;2023-07-13T00:51:26;5.38;;;3.20;;
56629;SDS011;42502;40.732;-74.254;2023-07-13T00:53:30;3.90;;;3.10;;
56629;SDS011;42502;40.732;-74.254;2023-07-13T00:55:34;5.10;;;3.28;;
56629;SDS011;42502;40.732;-74.254;2023-07-13T00:57:36;5.55;;;3.30;;
56629;SDS011;42502;40.732;-74.254;2023-07-13T00:59:37;3.80;;;3.50;;
56629;SDS011;42502;40.732;-74.254;2023-07-13T01:01:43;4.00;;;3.03;;
56629;SDS011;42502;40.732;-74.254;2023-07-13T01:03:44;4.75;;;2.90;;
56629;SDS011;42502;40.732;-74.254;2023-07-13T01:05:47;4.32;;;2.78;;
56629;SDS011;42502;40.732;-74.254;2023-07-13T01:07:50;2.90;;;2.67;;
56629;SDS011;42502;40.732;-74.254;2023-07-13T01:09:52;3.25;;;3.05;;
56629;SDS011;42502;40.732;-74.254;2023-07-13T01:11:53;4.80;;;3.40;;
56629;SDS011;42502;40.732;-74.254;2023-07-13T01:13:54;3.03;;;2.70;;
56629;SDS011;42502;40.732;-74.254;2023-07-13T01:16:01;3.13;;;2.70;;
56629;SDS011;42502;40.732;-74.254;2023-07-13T01:18:14;3.47;;;3.17;;
56629;SDS011;42502;40.732;-74.254;2023-07-13T01:20:20;3.40;;;3.20;;
56629;SDS011;42502;40.732;-74.254;2023-07-13T01:22:21;3.33;;;3.03;;
56629;SDS011;42502;40.732;-74.254;2023-07-13T01:24:25;4.00;;;3.20;;
56629;SDS011;42502;40.732;-74.254;2023-07-13T01:26:26;3.22;;;2.92;;
56629;SDS011;42502;40.732;-74.254;2023-07-13T01:28:27;3.45;;;2.83;;
56629;SDS011;42502;40.732;-74.254;2023-07-13T01:30:29;3.20;;;3.00;;
56629;SDS011;42502;40.732;-74.254;2023-07-13T01:32:29;6.53;;;3.38;;
56629;SDS011;42502;40.732;-74.254;2023-07-13T01:34:32;2.85;;;2.65;;
56629;SDS011;42502;40.732;-74.254;2023-07-13T01:36:33;3.53;;;3.28;;
56629;SDS011;42502;40.732;-74.254;2023-07-13T01:38:36;3.10;;;2.90;;
56629;SDS011;42502;40.732;-74.254;2023-07-13T01:40:37;3.30;;;3.10;;
56629;SDS011;42502;40.732;-74.254;2023-07-13T01:42:38;3.03;;;2.83;;
56629;SDS011;42502;40.732;-74.254;2023-07-13T01:44:39;2.72;;;2.53;;
56629;SDS011;42502;40.732;-74.254;2023-07-13T01:46:40;2.88;;;2.67;;
56629;SDS011;42502;40.732;-74.254;2023-07-13T01:48:41;3.10;;;2.90;;
56629;SDS011;42502;40.732;-74.254;2023-07-13T01:50:42;2.92;;;2.72;;
56629;SDS011;42502;40.732;-74.254;2023-07-13T01:52:43;4.22;;;3.28;;
56629;SDS011;42502;40.732;-74.254;2023-07-13T01:54:44;3.45;;;3.10;;
56629;SDS011;42502;40.732;-74.254;2023-07-13T01:56:45;3.08;;;2.88;;
56629;SDS011;42502;40.732;-74.254;2023-07-13T01:58:46;3.28;;;3.08;;
56629;SDS011;42502;40.732;-74.254;2023-07-13T02:00:48;3.08;;;2.88;;
56629;SDS011;42502;40.732;-74.254;2023-07-13T02:02:50;3.22;;;3.03;;
56629;SDS011;42502;40.732;-74.254;2023-07-13T02:04:51;3.20;;;2.90;;
56629;SDS011;42502;40.732;-74.254;2023-07-13T02:06:52;4.72;;;2.70;;
56629;SDS011;42502;40.732;-74.254;2023-07-13T02:08:52;3.15;;;2.78;;
56629;SDS011;42502;40.732;-74.254;2023-07-13T02:10:53;3.50;;;3.20;;
56629;SDS011;42502;40.732;-74.254;2023-07-13T02:12:54;3.10;;;2.85;;
56629;SDS011;42502;40.732;-74.254;2023-07-13T02:14:55;3.20;;;3.00;;
56629;SDS011;42502;40.732;-74.254;2023-07-13T02:16:56;3.20;;;3.00;;
56629;SDS011;42502;40.732;-74.254;2023-07-13T02:18:57;3.05;;;2.85;;
56629;SDS011;42502;40.732;-74.254;2023-07-13T02:20:58;2.83;;;2.65;;
56629;SDS011;42502;40.732;-74.254;2023-07-13T02:22:59;2.83;;;2.63;;
56629;SDS011;42502;40.732;-74.254;2023-07-13T02:25:00;3.30;;;3.10;;
56629;SDS011;42502;40.732;-74.254;2023-07-13T02:27:04;2.97;;;2.78;;
56629;SDS011;42502;40.732;-74.254;2023-07-13T02:29:05;3.33;;;3.08;;
56629;SDS011;42502;40.732;-74.254;2023-07-13T02:31:07;2.92;;;2.72;;
56629;SDS011;42502;40.732;-74.254;2023-07-13T02:33:10;2.70;;;2.50;;
56629;SDS011;42502;40.732;-74.254;2023-07-13T02:35:14;2.90;;;2.70;;
56629;SDS011;42502;40.732;-74.254;2023-07-13T02:37:14;2.55;;;2.45;;
56629;SDS011;42502;40.732;-74.254;2023-07-13T02:39:15;3.08;;;2.88;;
56629;SDS011;42502;40.732;-74.254;2023-07-13T02:41:17;3.35;;;3.15;;
56629;SDS011;42502;40.732;-74.254;2023-07-13T02:43:17;2.72;;;2.55;;
56629;SDS011;42502;40.732;-74.254;2023-07-13T02:45:18;2.78;;;2.58;;
56629;SDS011;42502;40.732;-74.254;2023-07-13T02:47:19;3.10;;;2.90;;
56629;SDS011;42502;40.732;-74.254;2023-07-13T02:49:20;2.55;;;2.38;;
56629;SDS011;42502;40.732;-74.254;2023-07-13T02:51:21;2.72;;;2.40;;
56629;SDS011;42502;40.732;-74.254;2023-07-13T02:53:22;2.85;;;2.65;;
56629;SDS011;42502;40.732;-74.254;2023-07-13T02:55:23;2.35;;;2.25;;
56629;SDS011;42502;40.732;-74.254;2023-07-13T02:57:24;2.88;;;2.67;;
56629;SDS011;42502;40.732;-74.254;2023-07-13T02:59:24;2.50;;;2.30;;
56629;SDS011;42502;40.732;-74.254;2023-07-13T03:01:25;2.75;;;2.55;;
56629;SDS011;42502;40.732;-74.254;2023-07-13T03:03:26;2.63;;;2.42;;
56629;SDS011;42502;40.732;-74.254;2023-07-13T03:05:27;3.00;;;2.80;;
56629;SDS011;42502;40.732;-74.254;2023-07-13T03:07:28;2.90;;;2.70;;
56629;SDS011;42502;40.732;-74.254;2023-07-13T03:09:31;5.95;;;2.75;;
56629;SDS011;42502;40.732;-74.254;2023-07-13T03:11:35;2.75;;;2.58;;
56629;SDS011;42502;40.732;-74.254;2023-07-13T03:13:36;2.42;;;2.22;;
56629;SDS011;42502;40.732;-74.254;2023-07-13T03:15:38;2.70;;;2.50;;
56629;SDS011;42502;40.732;-74.254;2023-07-13T03:17:39;3.03;;;2.83;;
56629;SDS011;42502;40.732;-74.254;2023-07-13T03:19:40;3.50;;;3.25;;
56629;SDS011;42502;40.732;-74.254;2023-07-13T03:21:41;2.63;;;2.42;;
56629;SDS011;42502;40.732;-74.254;2023-07-13T03:23:44;2.63;;;2.50;;
56629;SDS011;42502;40.732;-74.254;2023-07-13T03:25:46;2.65;;;2.45;;
56629;SDS011;42502;40.732;-74.254;2023-07-13T03:27:47;2.55;;;2.35;;
56629;SDS011;42502;40.732;-74.254;2023-07-13T03:29:47;2.58;;;2.47;;
56629;SDS011;42502;40.732;-74.254;2023-07-13T03:31:48;2.58;;;2.33;;
56629;SDS011;42502;40.732;-74.254;2023-07-13T03:33:52;2.67;;;2.50;;
56629;SDS011;42502;40.732;-74.254;2023-07-13T03:35:53;3.05;;;2.20;;
56629;SDS011;42502;40.732;-74.254;2023-07-13T03:37:54;2.78;;;2.58;;
56629;SDS011;42502;40.732;-74.254;2023-07-13T03:39:55;2.45;;;2.25;;
56629;SDS011;42502;40.732;-74.254;2023-07-13T03:41:55;3.05;;;2.85;;
56629;SDS011;42502;40.732;-74.254;2023-07-13T03:43:56;2.92;;;2.63;;
56629;SDS011;42502;40.732;-74.254;2023-07-13T03:45:57;2.15;;;2.05;;
56629;SDS011;42502;40.732;-74.254;2023-07-13T03:47:58;2.60;;;2.40;;
56629;SDS011;42502;40.732;-74.254;2023-07-13T03:49:59;2.60;;;2.40;;
56629;SDS011;42502;40.732;-74.254;2023-07-13T03:52:00;2.58;;;2.38;;
56629;SDS011;42502;40.732;-74.254;2023-07-13T03:54:01;2.60;;;2.40;;
56629;SDS011;42502;40.732;-74.254;2023-07-13T03:56:05;2.20;;;2.10;;
56629;SDS011;42502;40.732;-74.254;2023-07-13T04:00:29;2.70;;;2.50;;
56629;SDS011;42502;40.732;-74.254;2023-07-13T04:02:30;2.80;;;2.60;;
56629;SDS011;42502;40.732;-74.254;2023-07-13T04:04:30;3.25;;;2.95;;
56629;SDS011;42502;40.732;-74.254;2023-07-13T04:06:31;3.08;;;2.88;;
56629;SDS011;42502;40.732;-74.254;2023-07-13T04:08:33;2.78;;;2.58;;
56629;SDS011;42502;40.732;-74.254;2023-07-13T04:10:36;3.75;;;2.50;;
56629;SDS011;42502;40.732;-74.254;2023-07-13T04:12:40;3.03;;;2.83;;
56629;SDS011;42502;40.732;-74.254;2023-07-13T04:14:41;2.60;;;2.40;;
56629;SDS011;42502;40.732;-74.254;2023-07-13T04:16:42;2.78;;;2.53;;
56629;SDS011;42502;40.732;-74.254;2023-07-13T04:18:49;2.70;;;2.50;;
56629;SDS011;42502;40.732;-74.254;2023-07-13T04:20:50;2.70;;;2.50;;
56629;SDS011;42502;40.732;-74.254;2023-07-13T04:22:51;3.38;;;2.60;;
56629;SDS011;42502;40.732;-74.254;2023-07-13T04:24:53;2.90;;;2.70;;
56629;SDS011;42502;40.732;-74.254;2023-07-13T04:26:54;2.75;;;2.53;;
56629;SDS011;42502;40.732;-74.254;2023-07-13T04:28:59;2.85;;;2.65;;
56629;SDS011;42502;40.732;-74.254;2023-07-13T04:31:00;2.78;;;2.58;;
56629;SDS011;42502;40.732;-74.254;2023-07-13T04:33:01;2.72;;;2.53;;
56629;SDS011;42502;40.732;-74.254;2023-07-13T04:35:02;2.95;;;2.75;;
56629;SDS011;42502;40.732;-74.254;2023-07-13T04:37:04;3.28;;;3.00;;
56629;SDS011;42502;40.732;-74.254;2023-07-13T04:39:05;2.47;;;2.33;;
56629;SDS011;42502;40.732;-74.254;2023-07-13T04:41:07;2.33;;;2.22;;
56629;SDS011;42502;40.732;-74.254;2023-07-13T04:43:09;2.75;;;2.55;;
56629;SDS011;42502;40.732;-74.254;2023-07-13T04:45:10;2.50;;;2.30;;
56629;SDS011;42502;40.732;-74.254;2023-07-13T04:47:13;3.00;;;2.80;;
56629;SDS011;42502;40.732;-74.254;2023-07-13T04:49:17;2.63;;;2.42;;
56629;SDS011;42502;40.732;-74.254;2023-07-13T04:51:18;2.67;;;2.58;;
56629;SDS011;42502;40.732;-74.254;2023-07-13T04:53:19;2.85;;;2.55;;
56629;SDS011;42502;40.732;-74.254;2023-07-13T04:55:20;2.53;;;2.38;;
56629;SDS011;42502;40.732;-74.254;2023-07-13T04:57:23;2.78;;;2.58;;
56629;SDS011;42502;40.732;-74.254;2023-07-13T04:59:27;2.90;;;2.70;;
56629;SDS011;42502;40.732;-74.254;2023-07-13T05:01:28;3.08;;;2.70;;
56629;SDS011;42502;40.732;-74.254;2023-07-13T05:03:29;2.42;;;2.22;;
56629;SDS011;42502;40.732;-74.254;2023-07-13T05:05:30;3.00;;;2.80;;
56629;SDS011;42502;40.732;-74.254;2023-07-13T05:07:31;3.10;;;2.80;;
56629;SDS011;42502;40.732;-74.254;2023-07-13T05:09:33;5.03;;;2.75;;
56629;SDS011;42502;40.732;-74.254;2023-07-13T05:11:34;2.83;;;2.55;;
56629;SDS011;42502;40.732;-74.254;2023-07-13T05:13:37;2.80;;;2.60;;
56629;SDS011;42502;40.732;-74.254;2023-07-13T05:15:41;2.83;;;2.63;;
56629;SDS011;42502;40.732;-74.254;2023-07-13T05:17:41;2.97;;;2.78;;
56629;SDS011;42502;40.732;-74.254;2023-07-13T05:19:42;4.07;;;2.60;;
56629;SDS011;42502;40.732;-74.254;2023-07-13T05:21:43;2.97;;;2.75;;
56629;SDS011;42502;40.732;-74.254;2023-07-13T05:23:44;3.40;;;3.10;;
56629;SDS011;42502;40.732;-74.254;2023-07-13T05:25:45;2.85;;;2.65;;
56629;SDS011;42502;40.732;-74.254;2023-07-13T05:27:45;2.80;;;2.60;;
56629;SDS011;42502;40.732;-74.254;2023-07-13T05:29:47;3.10;;;2.80;;
56629;SDS011;42502;40.732;-74.254;2023-07-13T05:31:50;3.35;;;3.05;;
56629;SDS011;42502;40.732;-74.254;2023-07-13T05:33:52;3.95;;;3.03;;
56629;SDS011;42502;40.732;-74.254;2023-07-13T05:35:52;3.58;;;2.92;;
56629;SDS011;42502;40.732;-74.254;2023-07-13T05:37:53;3.25;;;2.95;;
56629;SDS011;42502;40.732;-74.254;2023-07-13T05:39:54;3.60;;;3.30;;
56629;SDS011;42502;40.732;-74.254;2023-07-13T05:41:55;3.30;;;3.00;;
56629;SDS011;42502;40.732;-74.254;2023-07-13T05:43:56;2.70;;;2.50;;
56629;SDS011;42502;40.732;-74.254;2023-07-13T05:45:57;3.72;;;3.42;;
56629;SDS011;42502;40.732;-74.254;2023-07-13T05:47:57;4.45;;;3.00;;
56629;SDS011;42502;40.732;-74.254;2023-07-13T05:49:58;3.42;;;3.13;;
56629;SDS011;42502;40.732;-74.254;2023-07-13T05:51:59;3.17;;;2.97;;
56629;SDS011;42502;40.732;-74.254;2023-07-13T05:54:00;2.88;;;2.67;;
56629;SDS011;42502;40.732;-74.254;2023-07-13T05:56:01;3.90;;;2.65;;
56629;SDS011;42502;40.732;-74.254;2023-07-13T05:58:01;3.63;;;3.33;;
56629;SDS011;42502;40.732;-74.254;2023-07-13T06:00:02;4.22;;;3.08;;
56629;SDS011;42502;40.732;-74.254;2023-07-13T06:02:10;2.85;;;2.65;;
56629;SDS011;42502;40.732;-74.254;2023-07-13T06:04:11;5.55;;;3.13;;
56629;SDS011;42502;40.732;-74.254;2023-07-13T06:06:12;3.10;;;2.90;;
56629;SDS011;42502;40.732;-74.254;2023-07-13T06:08:13;4.57;;;2.90;;
56629;SDS011;42502;40.732;-74.254;2023-07-13T06:10:13;3.58;;;3.28;;
56629;SDS011;42502;40.732;-74.254;2023-07-13T06:12:14;3.58;;;3.22;;
56629;SDS011;42502;40.732;-74.254;2023-07-13T06:14:15;3.75;;;3.10;;
56629;SDS011;42502;40.732;-74.254;2023-07-13T06:16:16;4.03;;;3.05;;
56629;SDS011;42502;40.732;-74.254;2023-07-13T06:18:17;3.40;;;3.10;;
56629;SDS011;42502;40.732;-74.254;2023-07-13T06:20:18;4.07;;;2.80;;
56629;SDS011;42502;40.732;-74.254;2023-07-13T06:22:19;3.80;;;3.50;;
56629;SDS011;42502;40.732;-74.254;2023-07-13T06:24:20;3.45;;;3.15;;
56629;SDS011;42502;40.732;-74.254;2023-07-13T06:26:20;5.10;;;3.55;;
56629;SDS011;42502;40.732;-74.254;2023-07-13T06:28:22;3.28;;;3.08;;
56629;SDS011;42502;40.732;-74.254;2023-07-13T06:30:23;3.30;;;2.92;;
56629;SDS011;42502;40.732;-74.254;2023-07-13T06:32:23;3.72;;;3.42;;
56629;SDS011;42502;40.732;-74.254;2023-07-13T06:34:24;3.17;;;2.97;;
56629;SDS011;42502;40.732;-74.254;2023-07-13T06:36:28;3.75;;;3.42;;
56629;SDS011;42502;40.732;-74.254;2023-07-13T06:38:29;3.92;;;3.60;;
56629;SDS011;42502;40.732;-74.254;2023-07-13T06:40:30;6.75;;;3.38;;
56629;SDS011;42502;40.732;-74.254;2023-07-13T06:42:31;3.65;;;3.35;;
56629;SDS011;42502;40.732;-74.254;2023-07-13T06:44:32;2.95;;;2.75;;
56629;SDS011;42502;40.732;-74.254;2023-07-13T06:46:35;4.47;;;3.33;;
56629;SDS011;42502;40.732;-74.254;2023-07-13T06:48:45;3.72;;;3.53;;
56629;SDS011;42502;40.732;-74.254;2023-07-13T06:50:47;3.40;;;3.10;;
56629;SDS011;42502;40.732;-74.254;2023-07-13T06:54:52;3.83;;;3.53;;
56629;SDS011;42502;40.732;-74.254;2023-07-13T06:56:53;3.58;;;3.28;;
56629;SDS011;42502;40.732;-74.254;2023-07-13T06:58:54;3.63;;;3.33;;
56629;SDS011;42502;40.732;-74.254;2023-07-13T07:00:55;3.75;;;3.45;;
56629;SDS011;42502;40.732;-74.254;2023-07-13T07:02:56;3.90;;;3.60;;
56629;SDS011;42502;40.732;-74.254;2023-07-13T07:04:57;3.13;;;2.88;;
56629;SDS011;42502;40.732;-74.254;2023-07-13T07:06:58;3.63;;;3.33;;
56629;SDS011;42502;40.732;-74.254;2023-07-13T07:08:58;3.30;;;3.10;;
56629;SDS011;42502;40.732;-74.254;2023-07-13T07:11:02;3.75;;;3.45;;
56629;SDS011;42502;40.732;-74.254;2023-07-13T07:13:03;3.53;;;3.28;;
56629;SDS011;42502;40.732;-74.254;2023-07-13T07:15:04;4.18;;;3.78;;
56629;SDS011;42502;40.732;-74.254;2023-07-13T07:17:05;4.00;;;3.63;;
56629;SDS011;42502;40.732;-74.254;2023-07-13T07:19:06;3.78;;;3.47;;
56629;SDS011;42502;40.732;-74.254;2023-07-13T07:21:07;4.15;;;3.70;;
56629;SDS011;42502;40.732;-74.254;2023-07-13T07:23:08;4.30;;;3.95;;
56629;SDS011;42502;40.732;-74.254;2023-07-13T07:25:08;3.88;;;3.58;;
56629;SDS011;42502;40.732;-74.254;2023-07-13T07:27:12;3.35;;;3.15;;
56629;SDS011;42502;40.732;-74.254;2023-07-13T07:29:13;3.83;;;3.53;;
56629;SDS011;42502;40.732;-74.254;2023-07-13T07:31:14;4.50;;;3.80;;
56629;SDS011;42502;40.732;-74.254;2023-07-13T07:33:17;3.88;;;3.58;;
56629;SDS011;42502;40.732;-74.254;2023-07-13T07:35:18;3.85;;;3.55;;
56629;SDS011;42502;40.732;-74.254;2023-07-13T07:37:19;3.47;;;3.17;;
56629;SDS011;42502;40.732;-74.254;2023-07-13T07:39:20;3.60;;;3.30;;
56629;SDS011;42502;40.732;-74.254;2023-07-13T07:41:21;4.18;;;3.85;;
56629;SDS011;42502;40.732;-74.254;2023-07-13T07:43:21;4.22;;;3.85;;
56629;SDS011;42502;40.732;-74.254;2023-07-13T07:45:22;3.72;;;3.47;;
56629;SDS011;42502;40.732;-74.254;2023-07-13T07:47:23;3.60;;;3.30;;
56629;SDS011;42502;40.732;-74.254;2023-07-13T07:49:33;3.63;;;3.33;;
56629;SDS011;42502;40.732;-74.254;2023-07-13T07:51:35;4.15;;;3.85;;
56629;SDS011;42502;40.732;-74.254;2023-07-13T07:53:36;3.40;;;3.20;;
56629;SDS011;42502;40.732;-74.254;2023-07-13T07:55:36;4.45;;;4.13;;
56629;SDS011;42502;40.732;-74.254;2023-07-13T07:57:37;4.15;;;3.78;;
56629;SDS011;42502;40.732;-74.254;2023-07-13T07:59:38;4.25;;;3.95;;
56629;SDS011;42502;40.732;-74.254;2023-07-13T08:01:39;4.50;;;4.10;;
56629;SDS011;42502;40.732;-74.254;2023-07-13T08:03:45;4.10;;;3.80;;
56629;SDS011;42502;40.732;-74.254;2023-07-13T08:05:52;4.63;;;4.22;;
56629;SDS011;42502;40.732;-74.254;2023-07-13T08:07:55;4.28;;;3.88;;
56629;SDS011;42502;40.732;-74.254;2023-07-13T08:09:56;4.22;;;3.92;;
56629;SDS011;42502;40.732;-74.254;2023-07-13T08:11:57;3.72;;;3.47;;
56629;SDS011;42502;40.732;-74.254;2023-07-13T08:13:58;4.00;;;3.65;;
56629;SDS011;42502;40.732;-74.254;2023-07-13T08:15:59;3.50;;;3.30;;
56629;SDS011;42502;40.732;-74.254;2023-07-13T08:18:03;4.18;;;3.88;;
56629;SDS011;42502;40.732;-74.254;2023-07-13T08:20:04;3.95;;;3.65;;
56629;SDS011;42502;40.732;-74.254;2023-07-13T08:22:05;4.18;;;3.88;;
56629;SDS011;42502;40.732;-74.254;2023-07-13T08:24:06;4.28;;;3.97;;
56629;SDS011;42502;40.732;-74.254;2023-07-13T08:26:07;4.53;;;3.80;;
56629;SDS011;42502;40.732;-74.254;2023-07-13T08:28:09;4.85;;;4.45;;
56629;SDS011;42502;40.732;-74.254;2023-07-13T08:30:10;4.55;;;3.78;;
56629;SDS011;42502;40.732;-74.254;2023-07-13T08:32:11;3.95;;;3.58;;
56629;SDS011;42502;40.732;-74.254;2023-07-13T08:34:11;3.97;;;3.67;;
56629;SDS011;42502;40.732;-74.254;2023-07-13T08:36:18;4.55;;;4.22;;
56629;SDS011;42502;40.732;-74.254;2023-07-13T08:38:19;3.75;;;3.55;;
56629;SDS011;42502;40.732;-74.254;2023-07-13T08:40:20;4.32;;;3.92;;
56629;SDS011;42502;40.732;-74.254;2023-07-13T08:42:31;3.45;;;3.25;;
56629;SDS011;42502;40.732;-74.254;2023-07-13T08:46:49;4.53;;;4.13;;
56629;SDS011;42502;40.732;-74.254;2023-07-13T08:48:57;4.03;;;3.72;;
56629;SDS011;42502;40.732;-74.254;2023-07-13T08:53:31;4.43;;;4.03;;
56629;SDS011;42502;40.732;-74.254;2023-07-13T08:55:39;3.80;;;3.50;;
56629;SDS011;42502;40.732;-74.254;2023-07-13T08:57:40;4.22;;;3.92;;
56629;SDS011;42502;40.732;-74.254;2023-07-13T08:59:47;4.00;;;3.70;;
56629;SDS011;42502;40.732;-74.254;2023-07-13T09:04:33;4.20;;;3.90;;
56629;SDS011;42502;40.732;-74.254;2023-07-13T09:06:36;3.80;;;3.55;;
56629;SDS011;42502;40.732;-74.254;2023-07-13T09:11:13;3.70;;;3.40;;
56629;SDS011;42502;40.732;-74.254;2023-07-13T09:13:27;3.92;;;3.63;;
56629;SDS011;42502;40.732;-74.254;2023-07-13T09:15:35;4.05;;;3.75;;
56629;SDS011;42502;40.732;-74.254;2023-07-13T09:17:46;4.97;;;4.03;;
56629;SDS011;42502;40.732;-74.254;2023-07-13T09:19:53;3.92;;;3.63;;
56629;SDS011;42502;40.732;-74.254;2023-07-13T09:22:00;3.70;;;3.50;;
56629;SDS011;42502;40.732;-74.254;2023-07-13T09:26:52;3.80;;;3.50;;
56629;SDS011;42502;40.732;-74.254;2023-07-13T09:29:09;4.55;;;4.00;;
56629;SDS011;42502;40.732;-74.254;2023-07-13T09:31:27;4.25;;;3.95;;
56629;SDS011;42502;40.732;-74.254;2023-07-13T09:33:36;4.78;;;3.75;;
56629;SDS011;42502;40.732;-74.254;2023-07-13T09:35:37;4.47;;;4.07;;
56629;SDS011;42502;40.732;-74.254;2023-07-13T09:37:38;4.43;;;4.00;;
56629;SDS011;42502;40.732;-74.254;2023-07-13T09:39:41;4.28;;;3.97;;
56629;SDS011;42502;40.732;-74.254;2023-07-13T09:44:09;4.57;;;4.18;;
56629;SDS011;42502;40.732;-74.254;2023-07-13T09:46:22;3.92;;;3.63;;
56629;SDS011;42502;40.732;-74.254;2023-07-13T09:48:23;4.53;;;4.13;;
56629;SDS011;42502;40.732;-74.254;2023-07-13T09:50:24;4.63;;;4.25;;
56629;SDS011;42502;40.732;-74.254;2023-07-13T09:52:26;4.32;;;3.92;;
56629;SDS011;42502;40.732;-74.254;2023-07-13T09:54:28;4.30;;;4.00;;
56629;SDS011;42502;40.732;-74.254;2023-07-13T09:56:29;4.45;;;4.05;;
56629;SDS011;42502;40.732;-74.254;2023-07-13T09:58:33;4.68;;;4.28;;
56629;SDS011;42502;40.732;-74.254;2023-07-13T10:00:35;4.32;;;3.97;;
56629;SDS011;42502;40.732;-74.254;2023-07-13T10:02:36;4.75;;;4.40;;
56629;SDS011;42502;40.732;-74.254;2023-07-13T10:04:37;4.68;;;4.28;;
56629;SDS011;42502;40.732;-74.254;2023-07-13T10:06:41;4.38;;;4.05;;
56629;SDS011;42502;40.732;-74.254;2023-07-13T10:08:44;4.78;;;4.38;;
56629;SDS011;42502;40.732;-74.254;2023-07-13T10:10:45;4.05;;;3.75;;
56629;SDS011;42502;40.732;-74.254;2023-07-13T10:12:52;4.88;;;4.47;;
56629;SDS011;42502;40.732;-74.254;2023-07-13T10:14:56;4.60;;;4.20;;
56629;SDS011;42502;40.732;-74.254;2023-07-13T10:17:00;4.55;;;3.70;;
56629;SDS011;42502;40.732;-74.254;2023-07-13T10:19:11;4.35;;;3.95;;
56629;SDS011;42502;40.732;-74.254;2023-07-13T10:21:34;3.97;;;3.67;;
56629;SDS011;42502;40.732;-74.254;2023-07-13T10:23:39;4.05;;;3.75;;
56629;SDS011;42502;40.732;-74.254;2023-07-13T10:25:43;4.85;;;3.83;;
56629;SDS011;42502;40.732;-74.254;2023-07-13T10:27:46;4.35;;;3.95;;
56629;SDS011;42502;40.732;-74.254;2023-07-13T10:30:02;3.72;;;3.53;;
56629;SDS011;42502;40.732;-74.254;2023-07-13T10:32:21;4.45;;;4.05;;
56629;SDS011;42502;40.732;-74.254;2023-07-13T10:34:24;4.28;;;3.90;;
56629;SDS011;42502;40.732;-74.254;2023-07-13T10:38:31;4.43;;;4.13;;
56629;SDS011;42502;40.732;-74.254;2023-07-13T10:40:34;4.13;;;3.83;;
56629;SDS011;42502;40.732;-74.254;2023-07-13T10:42:57;4.25;;;3.95;;
56629;SDS011;42502;40.732;-74.254;2023-07-13T10:45:01;4.43;;;4.13;;
56629;SDS011;42502;40.732;-74.254;2023-07-13T10:47:06;3.83;;;3.53;;
56629;SDS011;42502;40.732;-74.254;2023-07-13T10:49:13;4.20;;;3.80;;
56629;SDS011;42502;40.732;-74.254;2023-07-13T10:51:17;4.82;;;4.18;;
56629;SDS011;42502;40.732;-74.254;2023-07-13T10:53:29;4.28;;;3.97;;
56629;SDS011;42502;40.732;-74.254;2023-07-13T11:00:19;4.55;;;4.25;;
56629;SDS011;42502;40.732;-74.254;2023-07-13T11:02:23;4.38;;;4.07;;
56629;SDS011;42502;40.732;-74.254;2023-07-13T11:04:27;4.72;;;4.32;;
56629;SDS011;42502;40.732;-74.254;2023-07-13T11:06:39;4.70;;;4.30;;
56629;SDS011;42502;40.732;-74.254;2023-07-13T11:10:52;4.40;;;4.05;;
56629;SDS011;42502;40.732;-74.254;2023-07-13T11:12:55;4.28;;;3.97;;
56629;SDS011;42502;40.732;-74.254;2023-07-13T11:16:59;4.25;;;3.95;;
56629;SDS011;42502;40.732;-74.254;2023-07-13T11:19:43;4.32;;;4.03;;
56629;SDS011;42502;40.732;-74.254;2023-07-13T11:24:15;4.20;;;3.90;;
56629;SDS011;42502;40.732;-74.254;2023-07-13T11:28:49;4.65;;;4.30;;
56629;SDS011;42502;40.732;-74.254;2023-07-13T11:35:13;4.22;;;3.97;;
56629;SDS011;42502;40.732;-74.254;2023-07-13T11:37:23;5.50;;;4.35;;
56629;SDS011;42502;40.732;-74.254;2023-07-13T11:39:26;4.50;;;4.20;;
56629;SDS011;42502;40.732;-74.254;2023-07-13T11:41:36;4.35;;;3.95;;
56629;SDS011;42502;40.732;-74.254;2023-07-13T11:43:43;4.20;;;3.90;;
56629;SDS011;42502;40.732;-74.254;2023-07-13T11:45:45;4.40;;;4.00;;
56629;SDS011;42502;40.732;-74.254;2023-07-13T11:47:46;4.25;;;3.95;;
56629;SDS011;42502;40.732;-74.254;2023-07-13T11:49:50;4.45;;;4.05;;
56629;SDS011;42502;40.732;-74.254;2023-07-13T11:51:56;4.30;;;3.90;;
56629;SDS011;42502;40.732;-74.254;2023-07-13T11:54:03;4.35;;;3.90;;
56629;SDS011;42502;40.732;-74.254;2023-07-13T11:56:07;4.32;;;3.90;;
56629;SDS011;42502;40.732;-74.254;2023-07-13T11:58:09;4.40;;;4.05;;
56629;SDS011;42502;40.732;-74.254;2023-07-13T12:00:12;4.72;;;4.25;;
56629;SDS011;42502;40.732;-74.254;2023-07-13T12:04:26;4.85;;;4.35;;
56629;SDS011;42502;40.732;-74.254;2023-07-13T12:06:32;6.03;;;3.95;;
56629;SDS011;42502;40.732;-74.254;2023-07-13T12:10:40;4.53;;;4.13;;
56629;SDS011;42502;40.732;-74.254;2023-07-13T12:12:52;5.18;;;4.03;;
56629;SDS011;42502;40.732;-74.254;2023-07-13T12:15:04;5.07;;;4.10;;
56629;SDS011;42502;40.732;-74.254;2023-07-13T12:17:15;6.35;;;4.30;;
56629;SDS011;42502;40.732;-74.254;2023-07-13T12:19:23;4.80;;;4.30;;
56629;SDS011;42502;40.732;-74.254;2023-07-13T12:21:48;5.30;;;4.80;;
56629;SDS011;42502;40.732;-74.254;2023-07-13T12:23:49;5.00;;;4.50;;
56629;SDS011;42502;40.732;-74.254;2023-07-13T12:25:51;5.00;;;4.32;;
56629;SDS011;42502;40.732;-74.254;2023-07-13T12:27:55;6.43;;;4.32;;
56629;SDS011;42502;40.732;-74.254;2023-07-13T12:30:01;7.32;;;4.47;;
56629;SDS011;42502;40.732;-74.254;2023-07-13T12:32:08;6.07;;;4.00;;
56629;SDS011;42502;40.732;-74.254;2023-07-13T12:34:10;5.72;;;4.72;;
56629;SDS011;42502;40.732;-74.254;2023-07-13T12:36:13;4.28;;;3.95;;
56629;SDS011;42502;40.732;-74.254;2023-07-13T12:38:18;4.97;;;4.47;;
56629;SDS011;42502;40.732;-74.254;2023-07-13T12:40:24;4.55;;;4.07;;
56629;SDS011;42502;40.732;-74.254;2023-07-13T12:42:30;6.38;;;4.53;;
56629;SDS011;42502;40.732;-74.254;2023-07-13T12:44:33;5.15;;;4.20;;